Time;durP1;ratioP1;P1;durP2;ratioP2;P2;SDS_P1;SDS_P2;PMS_P1;PMS_P2;Temp;Humidity;BMP_temperature;BMP_pressure;BME280_temperature;BME280_humidity;BME280_pressure;Samples;Min_cycle;Max_cycle;Signal;HPM_P1;HPM_P2
2023/06/11 00:03:46;;;;;;;;;;;;;;;17.38;100.00;97438.81;18571014;32;19980;-54
2023/06/11 00:13:50;;;;;;;;;;;;;;;17.21;100.00;97428.66;18570585;32;20321;-53
2023/06/11 00:23:52;;;;;;;;;;;;;;;17.03;100.00;97427.81;18569152;32;20304;-54
2023/06/11 00:33:55;;;;;;;;;;;;;;;16.85;100.00;97426.94;18554910;32;19975;-55
2023/06/11 00:43:57;;;;;;;;;;;;;;;16.69;100.00;97421.09;18568360;32;19971;-55
2023/06/11 00:54:00;;;;;;;;;;;;;;;16.53;100.00;97431.66;18568123;32;19957;-54
2023/06/11 01:04:05;;;;;;;;;;;;;;;16.36;100.00;97429.66;18567459;32;20038;-55
2023/06/11 01:14:13;;;;;;;;;;;;;;;16.22;100.00;97436.00;18566743;31;20337;-54
2023/06/11 01:24:21;;;;;;;;;;;;;;;16.10;100.00;97435.75;18565973;32;19971;-52
2023/06/11 01:34:25;;;;;;;;;;;;;;;15.99;100.00;97440.69;18565088;31;19986;-54
2023/06/11 01:44:28;;;;;;;;;;;;;;;15.84;100.00;97450.06;18564977;32;20003;-53
2023/06/11 01:54:30;;;;;;;;;;;;;;;15.75;100.00;97446.41;18564475;32;20314;-53
2023/06/11 02:04:32;;;;;;;;;;;;;;;15.71;100.00;97448.16;18564237;32;19989;-55
2023/06/11 02:14:35;;;;;;;;;;;;;;;15.70;100.00;97455.50;18563028;32;19956;-54
2023/06/11 02:24:37;;;;;;;;;;;;;;;15.69;100.00;97461.28;18562386;32;19981;-51
2023/06/11 02:34:39;;;;;;;;;;;;;;;15.61;100.00;97451.09;18561972;32;19964;-54
2023/06/11 02:44:42;;;;;;;;;;;;;;;15.47;100.00;97441.06;18561107;32;19953;-54
2023/06/11 02:54:44;;;;;;;;;;;;;;;15.35;100.00;97433.44;18561167;32;20298;-51
2023/06/11 03:04:46;;;;;;;;;;;;;;;15.27;100.00;97442.34;18560704;31;20336;-53
2023/06/11 03:14:49;;;;;;;;;;;;;;;15.17;100.00;97446.09;18560674;32;20337;-54
2023/06/11 03:24:51;;;;;;;;;;;;;;;15.07;100.00;97447.13;18560229;32;19967;-52
2023/06/11 03:34:54;;;;;;;;;;;;;;;14.97;100.00;97446.53;18559730;31;19975;-53
2023/06/11 03:44:56;;;;;;;;;;;;;;;14.89;100.00;97451.56;18559847;32;19996;-51
2023/06/11 03:54:58;;;;;;;;;;;;;;;14.86;100.00;97454.87;18550081;31;19996;-53
2023/06/11 04:05:01;;;;;;;;;;;;;;;14.83;100.00;97460.94;18571119;32;20000;-53
2023/06/11 04:15:04;;;;;;;;;;;;;;;14.85;100.00;97468.81;18570376;32;19976;-51
2023/06/11 04:25:06;;;;;;;;;;;;;;;14.93;100.00;97473.53;18570185;32;19985;-53
2023/06/11 04:35:09;;;;;;;;;;;;;;;15.06;100.00;97480.91;18568978;31;20310;-55
2023/06/11 04:45:18;;;;;;;;;;;;;;;15.22;100.00;97483.28;18568780;32;20004;-54
2023/06/11 04:55:24;;;;;;;;;;;;;;;15.42;100.00;97484.78;18567923;32;19983;-54
2023/06/11 05:05:27;;;;;;;;;;;;;;;15.68;100.00;97482.28;18566855;32;19971;-55
2023/06/11 05:15:30;;;;;;;;;;;;;;;15.96;100.00;97495.84;18566900;32;20003;-55
2023/06/11 05:25:32;;;;;;;;;;;;;;;16.29;100.00;97492.03;18552166;32;19949;-54
2023/06/11 05:35:35;;;;;;;;;;;;;;;16.61;100.00;97507.31;18551100;31;20005;-52
2023/06/11 05:45:45;;;;;;;;;;;;;;;16.96;100.00;97515.69;18550968;32;19964;-55
2023/06/11 05:55:48;;;;;;;;;;;;;;;17.35;100.00;97518.69;18549946;32;19971;-54
2023/06/11 06:05:55;;;;;;;;;;;;;;;17.75;100.00;97527.59;18549998;32;19960;-54
2023/06/11 06:15:58;;;;;;;;;;;;;;;18.21;100.00;97528.12;18563536;32;19972;-54
2023/06/11 06:26:03;;;;;;;;;;;;;;;18.76;100.00;97533.94;18562660;32;19984;-55
2023/06/11 06:36:06;;;;;;;;;;;;;;;19.37;100.00;97539.19;18547558;31;19964;-55
2023/06/11 06:46:09;;;;;;;;;;;;;;;19.85;100.00;97548.13;18561491;32;19963;-55
2023/06/11 06:56:13;;;;;;;;;;;;;;;20.20;100.00;97538.78;18561265;32;19949;-54
2023/06/11 07:06:15;;;;;;;;;;;;;;;20.68;100.00;97550.28;18560780;32;20332;-54
2023/06/11 07:16:18;;;;;;;;;;;;;;;21.04;100.00;97540.56;18560560;32;19953;-55
2023/06/11 07:26:21;;;;;;;;;;;;;;;21.40;100.00;97552.69;18560528;32;20004;-55
2023/06/11 07:36:24;;;;;;;;;;;;;;;21.76;100.00;97557.41;18572456;31;19998;-56
2023/06/11 07:46:26;;;;;;;;;;;;;;;22.17;100.00;97571.16;18558203;32;19968;-52
2023/06/11 07:56:29;;;;;;;;;;;;;;;22.50;98.96;97564.63;18571696;32;20273;-56
2023/06/11 08:06:31;;;;;;;;;;;;;;;22.88;100.00;97566.03;18543914;32;20008;-56
2023/06/11 08:16:34;;;;;;;;;;;;;;;23.37;100.00;97566.91;18544041;32;20008;-56
2023/06/11 08:26:38;;;;;;;;;;;;;;;23.58;85.36;97559.09;18555872;32;19953;-56
2023/06/11 08:36:41;;;;;;;;;;;;;;;23.75;88.68;97560.69;18568706;32;19971;-56
2023/06/11 08:46:45;;;;;;;;;;;;;;;24.02;81.05;97556.19;18567781;32;20040;-56
2023/06/11 08:56:48;;;;;;;;;;;;;;;24.33;78.11;97548.13;18528235;32;19970;-56
2023/06/11 09:06:52;;;;;;;;;;;;;;;24.52;82.66;97547.31;18567211;32;19967;-55
2023/06/11 09:16:54;;;;;;;;;;;;;;;24.87;70.91;97536.12;18552429;32;19961;-56
2023/06/11 09:26:58;;;;;;;;;;;;;;;25.19;73.49;97543.38;18538966;31;20268;-56
2023/06/11 09:37:03;;;;;;;;;;;;;;;25.39;68.96;97544.09;18551281;31;19957;-56
2023/06/11 09:47:10;;;;;;;;;;;;;;;25.68;67.36;97539.81;18565250;32;20002;-56
2023/06/11 09:57:15;;;;;;;;;;;;;;;26.03;71.54;97538.72;18564469;32;19983;-56
2023/06/11 10:07:20;;;;;;;;;;;;;;;26.47;64.31;97542.00;18563670;32;19965;-57
2023/06/11 10:17:24;;;;;;;;;;;;;;;26.73;62.24;97543.12;18549188;32;19979;-57
2023/06/11 10:27:38;;;;;;;;;;;;;;;26.99;59.53;97534.62;18548129;32;19960;-56
2023/06/11 10:37:44;;;;;;;;;;;;;;;27.35;51.33;97537.72;18561996;32;19954;-56
2023/06/11 10:47:49;;;;;;;;;;;;;;;27.50;57.53;97526.75;18561557;32;19944;-56
2023/06/11 10:57:54;;;;;;;;;;;;;;;28.08;59.35;97525.13;18534147;32;19960;-56
2023/06/11 11:08:00;;;;;;;;;;;;;;;28.83;54.97;97529.31;18560522;32;19948;-56
2023/06/11 11:18:04;;;;;;;;;;;;;;;29.07;52.39;97522.97;18560619;32;19956;-57
2023/06/11 11:28:08;;;;;;;;;;;;;;;30.14;50.43;97522.47;18560389;32;19944;-56
2023/06/11 11:38:13;;;;;;;;;;;;;;;30.01;49.53;97516.50;18559761;31;19963;-57
2023/06/11 11:48:18;;;;;;;;;;;;;;;30.16;46.32;97503.31;18559757;32;19953;-55
2023/06/11 11:58:23;;;;;;;;;;;;;;;29.32;48.44;97499.94;18559381;32;19989;-56
2023/06/11 12:08:27;;;;;;;;;;;;;;;29.95;49.69;97485.47;18558707;31;20238;-55
2023/06/11 12:18:33;;;;;;;;;;;;;;;29.14;53.56;97465.72;18566647;32;19956;-57
2023/06/11 12:28:40;;;;;;;;;;;;;;;28.35;60.05;97446.94;18569956;32;19964;-57
2023/06/11 12:38:45;;;;;;;;;;;;;;;30.07;51.64;97448.78;18554461;31;19945;-57
2023/06/11 12:48:48;;;;;;;;;;;;;;;31.17;49.13;97438.50;18568668;32;19989;-57
2023/06/11 12:58:51;;;;;;;;;;;;;;;31.96;46.35;97425.66;18554183;32;19952;-57
2023/06/11 13:08:54;;;;;;;;;;;;;;;32.65;40.08;97411.50;18552847;32;20012;-57
2023/06/11 13:19:02;;;;;;;;;;;;;;;32.10;42.16;97409.47;18566885;32;20037;-56
2023/06/11 13:29:08;;;;;;;;;;;;;;;31.35;45.31;97404.78;18565481;32;19952;-56
2023/06/11 13:39:12;;;;;;;;;;;;;;;30.18;51.67;97397.75;18551620;31;19955;-57
2023/06/11 13:49:16;;;;;;;;;;;;;;;31.51;47.94;97391.03;18537655;32;19964;-57
2023/06/11 13:59:23;;;;;;;;;;;;;;;33.20;48.51;97382.16;18564261;32;19979;-57
2023/06/11 14:09:27;;;;;;;;;;;;;;;32.39;42.62;97374.72;18563798;32;20022;-56
2023/06/11 14:19:33;;;;;;;;;;;;;;;31.26;nan;97369.00;18562982;32;19991;-56
2023/06/11 14:29:36;;;;;;;;;;;;;;;30.58;46.96;97359.22;18548563;32;20352;-57
2023/06/11 14:39:43;;;;;;;;;;;;;;;31.64;45.31;97352.19;18560948;32;19982;-58
2023/06/11 14:49:46;;;;;;;;;;;;;;;32.67;41.91;97342.69;18547150;32;20313;-58
2023/06/11 14:59:49;;;;;;;;;;;;;;;32.08;42.72;97339.19;18547261;32;20009;-56
2023/06/11 15:09:53;;;;;;;;;;;;;;;31.31;40.22;97337.78;18560618;32;19953;-55
2023/06/11 15:19:58;;;;;;;;;;;;;;;30.80;39.97;97350.69;18560580;32;20047;-56
2023/06/11 15:30:03;;;;;;;;;;;;;;;29.78;43.43;97346.97;18546762;32;20016;-56
2023/06/11 15:40:07;;;;;;;;;;;;;;;29.49;42.02;97328.41;18560102;32;20000;-56
2023/06/11 15:50:12;;;;;;;;;;;;;;;29.05;46.87;97322.19;18563405;31;19952;-56
2023/06/11 16:00:16;;;;;;;;;;;;;;;28.91;53.99;97313.84;18571780;32;20034;-56
2023/06/11 16:10:19;;;;;;;;;;;;;;;28.85;55.14;97304.34;18570795;32;19956;-56
2023/06/11 16:20:25;;;;;;;;;;;;;;;28.71;51.26;97310.72;18555946;32;20314;-56
2023/06/11 16:30:29;;;;;;;;;;;;;;;28.61;45.01;97303.94;18569961;32;19977;-56
2023/06/11 16:40:32;;;;;;;;;;;;;;;29.12;44.63;97318.59;18569064;32;20376;-55
2023/06/11 16:50:35;;;;;;;;;;;;;;;29.06;43.50;97320.97;18568397;32;20285;-56
2023/06/11 17:00:38;;;;;;;;;;;;;;;27.92;42.73;97311.44;18553399;32;20245;-56
2023/06/11 17:10:44;;;;;;;;;;;;;;;27.27;50.80;97311.25;18567346;32;19948;-56
2023/06/11 17:20:47;;;;;;;;;;;;;;;26.62;60.76;97299.75;18566825;32;19989;-56
2023/06/11 17:30:51;;;;;;;;;;;;;;;26.19;65.74;97293.88;18566496;32;19961;-56
2023/06/11 17:40:55;;;;;;;;;;;;;;;25.84;74.05;97295.13;18550698;32;20306;-56
2023/06/11 17:50:58;;;;;;;;;;;;;;;25.36;81.93;97299.34;18564992;32;20277;-54
2023/06/11 18:01:02;;;;;;;;;;;;;;;25.08;89.13;97297.00;18564240;32;19977;-56
2023/06/11 18:11:06;;;;;;;;;;;;;;;24.56;91.17;97302.19;18563478;32;19975;-57
2023/06/11 18:21:09;;;;;;;;;;;;;;;24.76;93.36;97311.16;18563053;32;19979;-56
2023/06/11 18:31:15;;;;;;;;;;;;;;;24.37;92.55;97312.16;18562413;31;19961;-55
2023/06/11 18:41:22;;;;;;;;;;;;;;;23.78;94.64;97321.75;18561847;32;19948;-56
2023/06/11 18:51:26;;;;;;;;;;;;;;;23.32;100.00;97325.19;18561692;32;19993;-55
2023/06/11 19:01:31;;;;;;;;;;;;;;;22.87;99.95;97319.09;18546802;32;19971;-56
2023/06/11 19:11:34;;;;;;;;;;;;;;;22.48;95.27;97324.50;18560967;32;20369;-53
2023/06/11 19:21:38;;;;;;;;;;;;;;;;;;18560673;32;19953;-55
2023/06/11 19:31:41;;;;;;;;;;;;;;;21.69;95.02;97331.53;18558644;32;20245;-55
2023/06/11 19:41:45;;;;;;;;;;;;;;;21.24;97.93;97335.34;18572892;32;19995;-55
2023/06/11 19:51:47;;;;;;;;;;;;;;;20.77;98.67;97353.19;18572289;32;20012;-50
2023/06/11 20:01:52;;;;;;;;;;;;;;;20.38;100.00;97364.50;18571806;32;20286;-54
2023/06/11 20:12:04;;;;;;;;;;;;;;;20.02;100.00;97370.75;18557225;32;20035;-53
2023/06/11 20:22:07;;;;;;;;;;;;;;;19.69;100.00;97387.97;18555985;31;19956;-54
2023/06/11 20:32:11;;;;;;;;;;;;;;;19.41;100.00;97400.31;18569733;32;20359;-55
2023/06/11 20:42:15;;;;;;;;;;;;;;;19.20;100.00;97405.81;18569023;32;20289;-52
2023/06/11 20:52:19;;;;;;;;;;;;;;;19.01;100.00;97411.72;18568802;32;19980;-52
2023/06/11 21:02:22;;;;;;;;;;;;;;;18.81;100.00;97421.47;18568004;32;19972;-52
2023/06/11 21:12:27;;;;;;;;;;;;;;;18.60;100.00;97419.47;18553559;32;20015;-54
2023/06/11 21:22:31;;;;;;;;;;;;;;;18.45;100.00;97414.53;18566832;32;19948;-55
2023/06/11 21:32:34;;;;;;;;;;;;;;;18.34;100.00;97416.84;18566394;32;20356;-55
2023/06/11 21:42:38;;;;;;;;;;;;;;;18.26;100.00;97402.03;18565223;32;19948;-55
2023/06/11 21:52:42;;;;;;;;;;;;;;;18.25;100.00;97391.41;18564695;32;19967;-55
2023/06/11 22:02:44;;;;;;;;;;;;;;;18.15;100.00;97392.59;18564375;32;19964;-55
2023/06/11 22:12:48;;;;;;;;;;;;;;;18.07;100.00;97387.94;18563445;31;20017;-55
2023/06/11 22:22:51;;;;;;;;;;;;;;;18.02;100.00;97388.94;18563379;32;19949;-55
2023/06/11 22:32:57;;;;;;;;;;;;;;;18.09;98.77;97396.66;18562731;32;20317;-56
2023/06/11 22:43:01;;;;;;;;;;;;;;;18.22;92.76;97390.12;18562481;32;19960;-55
2023/06/11 22:53:05;;;;;;;;;;;;;;;18.06;100.00;97400.00;18561970;32;19953;-54
2023/06/11 23:03:09;;;;;;;;;;;;;;;17.77;100.00;97402.31;18560503;32;19969;-55
2023/06/11 23:13:11;;;;;;;;;;;;;;;17.51;100.00;97404.25;18560704;32;19945;-54
2023/06/11 23:23:15;;;;;;;;;;;;;;;17.27;100.00;97411.00;18560760;32;19975;-55
2023/06/11 23:33:18;;;;;;;;;;;;;;;17.01;100.00;97410.97;18560432;32;20253;-53
2023/06/11 23:43:21;;;;;;;;;;;;;;;16.76;100.00;97416.00;18560002;32;19964;-53
2023/06/11 23:53:25;;;;;;;;;;;;;;;16.51;100.00;97423.78;18559765;32;19971;-53
